Time;durP1;ratioP1;P1;durP2;ratioP2;P2;SDS_P1;SDS_P2;PMS_P1;PMS_P2;Temp;Humidity;BMP_temperature;BMP_pressure;BME280_temperature;BME280_humidity;BME280_pressure;Samples;Min_cycle;Max_cycle;Signal;HPM_P1;HPM_P2
2022/10/24 00:01:30;;;;;;;9.35;3.80;;;;;;;;;;5021434;28;20036;-69
2022/10/24 00:03:55;;;;;;;14.02;5.32;;;;;;;;;;5021413;28;20144;-69
2022/10/24 00:06:21;;;;;;;16.80;6.40;;;;;;;;;;5023504;28;20040;-69
2022/10/24 00:08:47;;;;;;;19.75;7.32;;;;;;;;;;5020049;28;21414;-69
2022/10/24 00:11:14;;;;;;;16.45;7.00;;;;;;;;;;5035238;28;20060;-69
2022/10/24 00:13:39;;;;;;;22.17;8.90;;;;;;;;;;5020695;28;20059;-69
2022/10/24 00:16:04;;;;;;;12.35;5.53;;;;;;;;;;5021687;28;20037;-71
2022/10/24 00:18:30;;;;;;;13.13;5.40;;;;;;;;;;5021109;28;20133;-71
2022/10/24 00:20:55;;;;;;;16.13;6.47;;;;;;;;;;5022609;28;20040;-73
2022/10/24 00:23:20;;;;;;;14.90;4.88;;;;;;;;;;5020848;28;20040;-72
2022/10/24 00:25:45;;;;;;;13.52;4.95;;;;;;;;;;5022003;28;20174;-72
2022/10/24 00:28:15;;;;;;;15.27;6.22;;;;;;;;;;5025351;28;20739;-72
2022/10/24 00:30:41;;;;;;;15.30;7.22;;;;;;;;;;5021890;28;20061;-72
2022/10/24 00:33:06;;;;;;;12.77;5.72;;;;;;;;;;5022721;28;20622;-73
2022/10/24 00:35:34;;;;;;;13.93;5.60;;;;;;;;;;5019583;28;20041;-71
2022/10/24 00:37:59;;;;;;;14.40;5.05;;;;;;;;;;5001743;28;20044;-71
2022/10/24 00:40:25;;;;;;;16.38;4.88;;;;;;;;;;5021593;28;20029;-72
2022/10/24 00:42:50;;;;;;;15.50;5.28;;;;;;;;;;5021437;28;20037;-72
2022/10/24 00:45:34;;;;;;;22.58;5.97;;;;;;;;;;5024706;28;20037;-72
2022/10/24 00:47:59;;;;;;;16.25;6.35;;;;;;;;;;5021940;28;20049;-72
2022/10/24 00:50:24;;;;;;;14.45;6.22;;;;;;;;;;5024157;28;20064;-72
2022/10/24 00:52:50;;;;;;;23.98;8.90;;;;;;;;;;5021864;28;20128;-71
2022/10/24 00:55:15;;;;;;;26.33;9.88;;;;;;;;;;5011784;28;20787;-74
2022/10/24 00:57:46;;;;;;;18.95;6.72;;;;;;;;;;5026238;28;20516;-72
2022/10/24 01:00:14;;;;;;;15.13;4.78;;;;;;;;;;5024412;28;20040;-72
2022/10/24 01:02:40;;;;;;;12.43;4.15;;;;;;;;;;5017667;28;20799;-73
2022/10/24 01:05:09;;;;;;;15.68;4.63;;;;;;;;;;5020960;28;20878;-72
2022/10/24 01:07:34;;;;;;;11.15;4.60;;;;;;;;;;5021075;28;20070;-72
2022/10/24 01:10:02;;;;;;;12.00;4.15;;;;;;;;;;5021146;28;20105;-70
2022/10/24 01:12:33;;;;;;;13.70;4.15;;;;;;;;;;5021764;28;20043;-72
2022/10/24 01:15:14;;;;;;;13.57;4.18;;;;;;;;;;5021354;28;20040;-74
2022/10/24 01:17:51;;;;;;;15.63;4.57;;;;;;;;;;5021461;28;20033;-73
2022/10/24 01:20:19;;;;;;;15.05;4.43;;;;;;;;;;5021332;28;20169;-73
2022/10/24 01:22:44;;;;;;;12.48;4.28;;;;;;;;;;5020339;28;20044;-72
2022/10/24 01:25:16;;;;;;;12.88;3.65;;;;;;;;;;5019885;28;20071;-71
2022/10/24 01:27:41;;;;;;;15.95;4.40;;;;;;;;;;5011603;28;20044;-71
2022/10/24 01:30:08;;;;;;;11.82;3.58;;;;;;;;;;5020761;28;20036;-70
2022/10/24 01:32:53;;;;;;;15.63;4.50;;;;;;;;;;5019920;28;20064;-72
2022/10/24 01:35:39;;;;;;;12.55;4.22;;;;;;;;;;5019307;28;20586;-72
2022/10/24 01:38:09;;;;;;;13.88;5.28;;;;;;;;;;5016814;28;20033;-73
2022/10/24 01:40:49;;;;;;;22.40;7.10;;;;;;;;;;5019399;28;20032;-71
2022/10/24 01:43:16;;;;;;;22.95;7.90;;;;;;;;;;5020439;28;20236;-73
2022/10/24 01:45:46;;;;;;;26.75;7.10;;;;;;;;;;5019147;28;20766;-72
2022/10/24 01:48:14;;;;;;;24.88;8.20;;;;;;;;;;5020320;28;20044;-72
2022/10/24 01:50:44;;;;;;;35.33;10.95;;;;;;;;;;5022537;28;21061;-70
2022/10/24 01:53:10;;;;;;;27.30;8.50;;;;;;;;;;5017073;28;20945;-71
2022/10/24 01:55:37;;;;;;;27.50;8.30;;;;;;;;;;5017736;28;20107;-73
2022/10/24 01:58:02;;;;;;;29.02;8.45;;;;;;;;;;5032933;28;20075;-72
2022/10/24 02:00:28;;;;;;;27.42;8.27;;;;;;;;;;5021258;28;21046;-73
2022/10/24 02:02:58;;;;;;;28.98;8.48;;;;;;;;;;5017409;28;20036;-72
2022/10/24 02:05:32;;;;;;;31.52;9.25;;;;;;;;;;5017035;28;21196;-72
2022/10/24 02:08:01;;;;;;;30.08;9.45;;;;;;;;;;5016876;28;20041;-71
2022/10/24 02:10:33;;;;;;;22.52;7.60;;;;;;;;;;5017964;28;20070;-71
2022/10/24 02:12:58;;;;;;;;;;;;;;;;;;5018972;28;20960;-72
2022/10/24 02:15:27;;;;;;;19.23;5.47;;;;;;;;;;5020117;28;19912;-72
2022/10/24 02:17:53;;;;;;;25.23;7.15;;;;;;;;;;5017596;28;20860;-72
2022/10/24 02:20:23;;;;;;;31.38;8.43;;;;;;;;;;5019230;28;20064;-73
2022/10/24 02:22:50;;;;;;;33.53;8.25;;;;;;;;;;5016755;28;20807;-72
2022/10/24 02:25:41;;;;;;;34.63;10.18;;;;;;;;;;5019553;28;20115;-72
2022/10/24 02:28:14;;;;;;;35.25;10.32;;;;;;;;;;5017298;28;20132;-72
2022/10/24 02:30:49;;;;;;;30.48;8.00;;;;;;;;;;5018761;28;20044;-72
2022/10/24 02:33:15;;;;;;;25.52;7.03;;;;;;;;;;5032700;28;20033;-71
2022/10/24 02:35:41;;;;;;;30.13;8.80;;;;;;;;;;5018719;28;20094;-73
2022/10/24 02:38:14;;;;;;;26.23;7.40;;;;;;;;;;5018951;28;20198;-71
2022/10/24 02:40:41;;;;;;;22.97;6.53;;;;;;;;;;5018538;28;20050;-70
2022/10/24 02:43:07;;;;;;;22.55;6.13;;;;;;;;;;5017954;28;21027;-70
2022/10/24 02:45:36;;;;;;;17.40;5.90;;;;;;;;;;5019213;28;20052;-71
2022/10/24 02:48:04;;;;;;;11.55;3.92;;;;;;;;;;5017506;28;20044;-71
2022/10/24 02:50:30;;;;;;;17.05;4.22;;;;;;;;;;5019704;28;20045;-70
2022/10/24 02:52:56;;;;;;;14.68;4.07;;;;;;;;;;5018792;28;20118;-71
2022/10/24 02:55:21;;;;;;;13.80;3.78;;;;;;;;;;5017391;28;20033;-71
2022/10/24 02:57:46;;;;;;;11.15;2.92;;;;;;;;;;5018875;28;20066;-71
2022/10/24 03:00:17;;;;;;;11.88;3.28;;;;;;;;;;5017896;28;21023;-70
2022/10/24 03:02:43;;;;;;;15.73;5.95;;;;;;;;;;5032508;28;20775;-70
2022/10/24 03:05:08;;;;;;;15.00;2.85;;;;;;;;;;5016767;28;20033;-71
2022/10/24 03:07:34;;;;;;;15.45;3.80;;;;;;;;;;5018425;28;20071;-70
2022/10/24 03:10:02;;;;;;;10.35;3.20;;;;;;;;;;5018776;28;20033;-71
2022/10/24 03:12:27;;;;;;;16.00;3.58;;;;;;;;;;5017462;28;20798;-73
2022/10/24 03:14:53;;;;;;;14.32;3.50;;;;;;;;;;5017898;28;20157;-72
2022/10/24 03:17:18;;;;;;;10.63;3.05;;;;;;;;;;5015441;28;20037;-70
2022/10/24 03:19:44;;;;;;;12.60;3.22;;;;;;;;;;5018123;28;20036;-69
2022/10/24 03:22:09;;;;;;;12.05;3.17;;;;;;;;;;5015788;28;20725;-70
2022/10/24 03:24:35;;;;;;;10.07;2.63;;;;;;;;;;5014215;28;20603;-70
2022/10/24 03:27:00;;;;;;;13.85;3.47;;;;;;;;;;5017444;28;20937;-72
2022/10/24 03:29:26;;;;;;;18.80;3.95;;;;;;;;;;5033559;28;20768;-73
2022/10/24 03:31:53;;;;;;;13.57;3.40;;;;;;;;;;5019037;28;20182;-70
2022/10/24 03:34:18;;;;;;;6.93;2.30;;;;;;;;;;5017655;28;20117;-72
2022/10/24 03:36:43;;;;;;;12.27;2.80;;;;;;;;;;5018769;28;20033;-70
2022/10/24 03:39:09;;;;;;;8.10;2.47;;;;;;;;;;5017349;28;20612;-71
2022/10/24 03:41:36;;;;;;;12.93;2.40;;;;;;;;;;5016891;28;20040;-70
2022/10/24 03:44:02;;;;;;;6.30;1.92;;;;;;;;;;5018121;28;20907;-71
2022/10/24 03:46:27;;;;;;;11.25;3.10;;;;;;;;;;5018136;28;20036;-70
2022/10/24 03:48:52;;;;;;;12.00;2.58;;;;;;;;;;5031475;28;20041;-70
2022/10/24 03:51:18;;;;;;;10.20;2.58;;;;;;;;;;5017684;28;20136;-70
2022/10/24 03:53:44;;;;;;;12.70;2.17;;;;;;;;;;5013820;28;20033;-70
2022/10/24 03:56:09;;;;;;;9.55;3.38;;;;;;;;;;5025608;28;20040;-73
2022/10/24 03:58:37;;;;;;;17.00;3.78;;;;;;;;;;5015498;28;20032;-71
2022/10/24 04:01:02;;;;;;;15.60;3.72;;;;;;;;;;5016184;28;20040;-69
2022/10/24 04:03:31;;;;;;;12.05;3.60;;;;;;;;;;5017491;28;20167;-70
2022/10/24 04:05:56;;;;;;;11.55;3.22;;;;;;;;;;5015529;28;20028;-70
2022/10/24 04:08:24;;;;;;;14.25;4.75;;;;;;;;;;5016360;28;20867;-70
2022/10/24 04:10:50;;;;;;;13.32;4.13;;;;;;;;;;5017510;28;20032;-71
2022/10/24 04:13:15;;;;;;;13.48;4.57;;;;;;;;;;5014624;28;20033;-69
2022/10/24 04:15:43;;;;;;;17.33;4.53;;;;;;;;;;5018698;28;20036;-71
2022/10/24 04:18:08;;;;;;;12.02;3.58;;;;;;;;;;5017519;28;20068;-72
2022/10/24 04:20:37;;;;;;;17.33;3.28;;;;;;;;;;5016764;28;20033;-70
2022/10/24 04:23:03;;;;;;;11.95;2.80;;;;;;;;;;5016425;28;20052;-69
2022/10/24 04:25:29;;;;;;;17.17;3.25;;;;;;;;;;5015648;28;20064;-72
2022/10/24 04:27:54;;;;;;;17.35;3.42;;;;;;;;;;5015158;28;20048;-69
2022/10/24 04:30:19;;;;;;;15.63;3.00;;;;;;;;;;5021522;28;20040;-70
2022/10/24 04:32:44;;;;;;;16.58;3.95;;;;;;;;;;5018135;28;20039;-71
2022/10/24 04:35:10;;;;;;;19.55;4.35;;;;;;;;;;5031493;28;20136;-73
2022/10/24 04:37:36;;;;;;;22.20;4.97;;;;;;;;;;5019561;28;21052;-72
2022/10/24 04:40:01;;;;;;;12.85;3.42;;;;;;;;;;5017920;28;20037;-70
2022/10/24 04:42:27;;;;;;;11.85;3.33;;;;;;;;;;5021794;28;20025;-69
2022/10/24 04:44:52;;;;;;;12.40;3.05;;;;;;;;;;5028159;28;20072;-68
2022/10/24 04:47:20;;;;;;;15.07;2.70;;;;;;;;;;5019744;28;20037;-68
2022/10/24 04:49:48;;;;;;;12.00;2.47;;;;;;;;;;5022515;28;20119;-69
2022/10/24 04:52:13;;;;;;;10.38;2.72;;;;;;;;;;5022222;28;22280;-68
2022/10/24 04:54:38;;;;;;;13.07;3.20;;;;;;;;;;5020359;28;20025;-68
2022/10/24 04:57:08;;;;;;;9.73;2.60;;;;;;;;;;5019417;28;20036;-70
2022/10/24 04:59:34;;;;;;;14.25;2.70;;;;;;;;;;5018847;28;20790;-68
2022/10/24 05:01:59;;;;;;;12.85;3.03;;;;;;;;;;5020705;28;20047;-69
2022/10/24 05:04:27;;;;;;;14.18;4.60;;;;;;;;;;5000890;28;20032;-69
2022/10/24 05:06:52;;;;;;;19.27;3.38;;;;;;;;;;5021364;28;20802;-70
2022/10/24 05:09:18;;;;;;;21.02;3.13;;;;;;;;;;5020467;28;20051;-71
2022/10/24 05:11:44;;;;;;;15.57;4.63;;;;;;;;;;5020530;28;20045;-70
2022/10/24 05:14:09;;;;;;;8.60;2.55;;;;;;;;;;5034305;28;20817;-70
2022/10/24 05:16:34;;;;;;;14.45;2.97;;;;;;;;;;5019721;28;20056;-70
2022/10/24 05:19:00;;;;;;;13.85;2.40;;;;;;;;;;5017799;28;21173;-70
2022/10/24 05:21:25;;;;;;;11.13;2.55;;;;;;;;;;5034282;28;20040;-67
2022/10/24 05:23:51;;;;;;;13.60;3.47;;;;;;;;;;5020194;28;20036;-72
2022/10/24 05:26:16;;;;;;;10.07;2.70;;;;;;;;;;5010811;28;20032;-71
2022/10/24 05:28:41;;;;;;;14.38;3.25;;;;;;;;;;5017981;28;20044;-68
2022/10/24 05:31:09;;;;;;;18.02;3.28;;;;;;;;;;5019116;28;20036;-69
2022/10/24 05:33:34;;;;;;;15.38;2.88;;;;;;;;;;5022785;28;22514;-69
2022/10/24 05:36:00;;;;;;;11.35;2.50;;;;;;;;;;5019901;28;20033;-69
2022/10/24 05:38:27;;;;;;;14.90;2.67;;;;;;;;;;5022059;28;20139;-71
2022/10/24 05:40:53;;;;;;;11.50;3.13;;;;;;;;;;5007434;28;22360;-70
2022/10/24 05:43:19;;;;;;;12.93;3.30;;;;;;;;;;5015882;28;20055;-73
2022/10/24 05:45:46;;;;;;;12.80;3.13;;;;;;;;;;5019913;28;20036;-72
2022/10/24 05:48:11;;;;;;;15.75;3.45;;;;;;;;;;5019660;28;20177;-72
2022/10/24 05:50:36;;;;;;;17.02;3.15;;;;;;;;;;5018637;28;20029;-69
2022/10/24 05:53:02;;;;;;;16.25;3.13;;;;;;;;;;5020621;28;20039;-70
2022/10/24 05:55:30;;;;;;;18.23;3.63;;;;;;;;;;5019536;28;20037;-69
2022/10/24 05:57:57;;;;;;;16.20;3.50;;;;;;;;;;5021200;28;20044;-67
2022/10/24 06:00:23;;;;;;;11.48;2.83;;;;;;;;;;5022180;28;20036;-69
2022/10/24 06:02:48;;;;;;;13.10;4.10;;;;;;;;;;5018608;28;20196;-67
2022/10/24 06:05:14;;;;;;;17.55;3.58;;;;;;;;;;5018602;28;20151;-69
2022/10/24 06:07:40;;;;;;;22.23;5.90;;;;;;;;;;5017934;28;20153;-67
2022/10/24 06:10:06;;;;;;;15.40;4.95;;;;;;;;;;5034879;28;20837;-69
2022/10/24 06:12:37;;;;;;;23.00;5.18;;;;;;;;;;5015269;28;20032;-71
2022/10/24 06:15:03;;;;;;;24.73;5.83;;;;;;;;;;5019339;28;20185;-70
2022/10/24 06:17:31;;;;;;;15.90;4.18;;;;;;;;;;5019736;28;20278;-71
2022/10/24 06:19:56;;;;;;;25.15;4.78;;;;;;;;;;5017467;28;20098;-70
2022/10/24 06:22:26;;;;;;;21.48;4.72;;;;;;;;;;5018627;28;22261;-69
2022/10/24 06:24:51;;;;;;;13.40;4.20;;;;;;;;;;5021411;28;20042;-68
2022/10/24 06:27:17;;;;;;;17.92;5.20;;;;;;;;;;5016660;28;20897;-68
2022/10/24 06:29:42;;;;;;;18.15;2.83;;;;;;;;;;5018058;28;20125;-70
2022/10/24 06:32:07;;;;;;;16.83;4.25;;;;;;;;;;5018222;28;20123;-70
2022/10/24 06:34:34;;;;;;;15.10;3.47;;;;;;;;;;5017053;28;20130;-69
2022/10/24 06:36:59;;;;;;;18.13;3.13;;;;;;;;;;5018968;28;22404;-70
2022/10/24 06:39:24;;;;;;;16.23;3.78;;;;;;;;;;5019164;28;20037;-69
2022/10/24 06:41:50;;;;;;;18.48;3.03;;;;;;;;;;5016732;28;20151;-68
2022/10/24 06:44:18;;;;;;;21.00;3.30;;;;;;;;;;5018160;28;20520;-69
2022/10/24 06:46:44;;;;;;;29.63;4.28;;;;;;;;;;5019070;28;21010;-70
2022/10/24 06:49:13;;;;;;;27.20;4.72;;;;;;;;;;5015469;28;20045;-67
2022/10/24 06:51:39;;;;;;;27.65;4.30;;;;;;;;;;5029978;28;20040;-69
2022/10/24 06:54:04;;;;;;;24.13;3.88;;;;;;;;;;5019025;28;20042;-69
2022/10/24 06:56:30;;;;;;;20.15;3.80;;;;;;;;;;5014839;28;20110;-67
2022/10/24 06:58:55;;;;;;;28.38;3.75;;;;;;;;;;5016763;28;20043;-70
2022/10/24 07:01:22;;;;;;;17.92;3.40;;;;;;;;;;5015807;28;20632;-69
2022/10/24 07:03:47;;;;;;;20.13;3.25;;;;;;;;;;5014663;28;20507;-67
2022/10/24 07:06:17;;;;;;;24.20;4.75;;;;;;;;;;5015938;28;20143;-67
2022/10/24 07:08:43;;;;;;;19.42;4.25;;;;;;;;;;5014631;28;20072;-70
2022/10/24 07:11:09;;;;;;;19.75;3.70;;;;;;;;;;5015657;28;20037;-69
2022/10/24 07:13:35;;;;;;;26.33;6.10;;;;;;;;;;5013458;28;20397;-68
2022/10/24 07:16:03;;;;;;;19.95;4.43;;;;;;;;;;5024517;28;20036;-66
2022/10/24 07:18:30;;;;;;;21.77;4.68;;;;;;;;;;5015866;28;20545;-69
2022/10/24 07:21:07;;;;;;;24.50;4.90;;;;;;;;;;5014503;28;20281;-68
2022/10/24 07:23:33;;;;;;;22.90;5.18;;;;;;;;;;5013939;28;20665;-68
2022/10/24 07:26:02;;;;;;;23.13;4.60;;;;;;;;;;5023501;28;20039;-69
2022/10/24 07:28:28;;;;;;;27.88;6.28;;;;;;;;;;5015648;28;20411;-68
2022/10/24 07:30:53;;;;;;;24.58;4.47;;;;;;;;;;5015364;28;20718;-69
2022/10/24 07:33:18;;;;;;;23.08;5.20;;;;;;;;;;5015867;28;20090;-67
2022/10/24 07:35:43;;;;;;;28.90;3.85;;;;;;;;;;5019178;28;20040;-68
2022/10/24 07:38:09;;;;;;;28.75;4.25;;;;;;;;;;5013804;28;20057;-71
2022/10/24 07:40:34;;;;;;;27.17;4.60;;;;;;;;;;5015733;28;20045;-70
2022/10/24 07:43:00;;;;;;;25.67;4.82;;;;;;;;;;5011014;28;20291;-69
2022/10/24 07:45:27;;;;;;;22.25;7.30;;;;;;;;;;5014379;28;20045;-67
2022/10/24 07:47:52;;;;;;;25.50;4.55;;;;;;;;;;5013368;28;20045;-68
2022/10/24 07:50:18;;;;;;;21.98;4.60;;;;;;;;;;5018002;28;20776;-68
2022/10/24 07:52:44;;;;;;;24.30;4.05;;;;;;;;;;5027820;28;22339;-70
2022/10/24 07:55:09;;;;;;;29.58;4.93;;;;;;;;;;5017354;28;20039;-69
2022/10/24 07:57:34;;;;;;;29.45;4.20;;;;;;;;;;5017764;28;20033;-71
2022/10/24 08:00:00;;;;;;;26.05;4.70;;;;;;;;;;5016623;28;20048;-70
2022/10/24 08:02:26;;;;;;;25.92;4.70;;;;;;;;;;5017553;28;20091;-69
2022/10/24 08:04:51;;;;;;;24.23;4.20;;;;;;;;;;5016902;28;21059;-69
2022/10/24 08:07:21;;;;;;;29.65;5.25;;;;;;;;;;5022921;28;20073;-68
2022/10/24 08:09:50;;;;;;;29.58;5.78;;;;;;;;;;5020234;28;20760;-68
2022/10/24 08:12:16;;;;;;;23.75;4.47;;;;;;;;;;5017362;28;20120;-66
2022/10/24 08:14:43;;;;;;;25.85;4.10;;;;;;;;;;5022592;28;20039;-69
2022/10/24 08:17:09;;;;;;;28.42;4.47;;;;;;;;;;5003040;28;20033;-66
2022/10/24 08:19:35;;;;;;;24.92;4.20;;;;;;;;;;5019507;28;20024;-67
2022/10/24 08:22:01;;;;;;;25.17;4.22;;;;;;;;;;5024488;28;20029;-68
2022/10/24 08:24:27;;;;;;;32.80;5.43;;;;;;;;;;5011506;28;20939;-66
2022/10/24 08:26:55;;;;;;;35.20;6.20;;;;;;;;;;5017268;28;22119;-69
2022/10/24 08:29:24;;;;;;;50.53;8.02;;;;;;;;;;5016384;28;20109;-69
2022/10/24 08:31:50;;;;;;;46.75;6.38;;;;;;;;;;5021306;28;20092;-69
2022/10/24 08:34:16;;;;;;;34.10;5.95;;;;;;;;;;5018229;28;20114;-68
2022/10/24 08:36:42;;;;;;;39.47;6.60;;;;;;;;;;5013299;28;20048;-70
2022/10/24 08:39:08;;;;;;;33.35;5.68;;;;;;;;;;5019133;28;20079;-68
2022/10/24 08:41:38;;;;;;;31.10;4.45;;;;;;;;;;5020018;28;20135;-68
2022/10/24 08:44:18;;;;;;;39.50;6.22;;;;;;;;;;5018663;28;20149;-69
2022/10/24 08:46:50;;;;;;;40.75;6.30;;;;;;;;;;5018287;28;20045;-69
2022/10/24 08:49:21;;;;;;;51.92;7.60;;;;;;;;;;5018909;28;20241;-67
2022/10/24 08:51:47;;;;;;;60.13;8.45;;;;;;;;;;5019310;28;20143;-69
2022/10/24 08:54:15;;;;;;;44.83;6.32;;;;;;;;;;5021038;28;20036;-67
2022/10/24 08:56:40;;;;;;;53.17;7.57;;;;;;;;;;5019777;28;20033;-69
2022/10/24 08:59:07;;;;;;;42.75;6.05;;;;;;;;;;5021749;28;20068;-69
2022/10/24 09:01:43;;;;;;;63.97;9.23;;;;;;;;;;5018309;28;20744;-67
2022/10/24 09:04:09;;;;;;;51.38;8.85;;;;;;;;;;5020338;28;20075;-68
2022/10/24 09:06:35;;;;;;;44.83;6.55;;;;;;;;;;5016338;28;20041;-70
2022/10/24 09:09:02;;;;;;;48.15;7.80;;;;;;;;;;5015784;28;20144;-67
2022/10/24 09:11:43;;;;;;;52.83;8.10;;;;;;;;;;5030896;28;20847;-69
2022/10/24 09:14:16;;;;;;;62.28;9.27;;;;;;;;;;5012426;28;20043;-67
2022/10/24 09:16:42;;;;;;;71.35;10.07;;;;;;;;;;5015985;28;20060;-68
2022/10/24 09:19:16;;;;;;;54.78;7.95;;;;;;;;;;5030590;28;20037;-67
2022/10/24 09:21:42;;;;;;;55.97;7.45;;;;;;;;;;5014142;28;20063;-68
2022/10/24 09:24:36;;;;;;;49.25;6.78;;;;;;;;;;5015499;28;20029;-69
2022/10/24 09:27:04;;;;;;;51.75;8.02;;;;;;;;;;5008182;28;20783;-68
2022/10/24 09:29:31;;;;;;;53.20;8.77;;;;;;;;;;5023536;28;20075;-72
2022/10/24 09:31:56;;;;;;;52.20;8.23;;;;;;;;;;5023908;28;20104;-66
2022/10/24 09:34:21;;;;;;;46.22;7.95;;;;;;;;;;5020396;28;20040;-68
2022/10/24 09:36:46;;;;;;;43.60;7.35;;;;;;;;;;5008453;28;20152;-70
2022/10/24 09:39:27;;;;;;;40.38;6.78;;;;;;;;;;5034316;28;20145;-70
2022/10/24 09:41:53;;;;;;;43.53;7.55;;;;;;;;;;5016268;28;20542;-68
2022/10/24 09:44:30;;;;;;;37.05;5.55;;;;;;;;;;5024508;28;20060;-65
2022/10/24 09:46:59;;;;;;;44.25;7.22;;;;;;;;;;5022898;28;20179;-70
2022/10/24 09:49:30;;;;;;;46.38;7.07;;;;;;;;;;5017987;28;20044;-68
2022/10/24 09:52:01;;;;;;;50.88;7.30;;;;;;;;;;5017199;28;20064;-74
2022/10/24 09:54:29;;;;;;;44.13;7.43;;;;;;;;;;5016253;28;20036;-72
2022/10/24 09:56:57;;;;;;;41.10;5.60;;;;;;;;;;5015909;28;20033;-72
2022/10/24 09:59:31;;;;;;;41.97;6.70;;;;;;;;;;5007415;28;20047;-73
2022/10/24 10:02:21;;;;;;;49.47;7.30;;;;;;;;;;5018013;28;20045;-71
2022/10/24 10:04:48;;;;;;;49.45;6.80;;;;;;;;;;5018820;28;20060;-73
2022/10/24 10:07:18;;;;;;;42.22;6.30;;;;;;;;;;5017910;28;20039;-72
2022/10/24 10:09:49;;;;;;;41.97;6.63;;;;;;;;;;5016460;28;20764;-71
2022/10/24 10:12:35;;;;;;;61.13;10.07;;;;;;;;;;5007590;28;20037;-73
2022/10/24 10:15:03;;;;;;;35.42;6.50;;;;;;;;;;5016714;28;20032;-72
2022/10/24 10:17:32;;;;;;;43.35;6.13;;;;;;;;;;5017664;28;20803;-70
2022/10/24 10:19:58;;;;;;;42.50;6.25;;;;;;;;;;5017054;28;20028;-73
2022/10/24 10:22:32;;;;;;;29.98;5.38;;;;;;;;;;5016579;28;20491;-71
2022/10/24 10:24:58;;;;;;;36.35;5.85;;;;;;;;;;5008474;28;20044;-70
2022/10/24 10:27:26;;;;;;;41.00;6.13;;;;;;;;;;5014194;28;20140;-71
2022/10/24 10:30:10;;;;;;;39.13;6.22;;;;;;;;;;5012814;28;20032;-71
2022/10/24 10:32:56;;;;;;;42.13;7.15;;;;;;;;;;5017297;28;20036;-70
2022/10/24 10:35:28;;;;;;;38.90;6.32;;;;;;;;;;5016867;28;20070;-69
2022/10/24 10:38:00;;;;;;;36.42;6.18;;;;;;;;;;5017084;28;20071;-71
2022/10/24 10:40:35;;;;;;;36.63;6.32;;;;;;;;;;5019363;28;20600;-69
2022/10/24 10:43:03;;;;;;;45.65;6.47;;;;;;;;;;5019136;28;20955;-70
2022/10/24 10:45:39;;;;;;;48.70;7.05;;;;;;;;;;5014478;28;20838;-71
2022/10/24 10:48:23;;;;;;;36.13;6.00;;;;;;;;;;5014944;28;20056;-70
2022/10/24 10:51:06;;;;;;;39.55;6.20;;;;;;;;;;5020375;28;20064;-68
2022/10/24 10:53:41;;;;;;;51.22;7.03;;;;;;;;;;5017285;28;20539;-69
2022/10/24 10:56:12;;;;;;;37.45;6.10;;;;;;;;;;5017783;28;20119;-70
2022/10/24 10:58:48;;;;;;;47.25;6.68;;;;;;;;;;5016876;28;20033;-70
2022/10/24 11:01:16;;;;;;;51.75;7.80;;;;;;;;;;5018866;28;20140;-69
2022/10/24 11:03:48;;;;;;;52.00;7.05;;;;;;;;;;5017185;28;20044;-69
2022/10/24 11:06:32;;;;;;;46.08;7.35;;;;;;;;;;5018181;28;20037;-69
2022/10/24 11:09:04;;;;;;;53.35;7.75;;;;;;;;;;5016912;28;20044;-68
2022/10/24 11:11:38;;;;;;;39.95;6.63;;;;;;;;;;5014703;28;20033;-70
2022/10/24 11:14:06;;;;;;;37.63;6.70;;;;;;;;;;5014741;28;20241;-71
2022/10/24 11:16:32;;;;;;;38.22;6.30;;;;;;;;;;5016934;28;20090;-71
2022/10/24 11:19:04;;;;;;;28.45;4.53;;;;;;;;;;5016714;28;20039;-70
2022/10/24 11:21:31;;;;;;;37.08;5.07;;;;;;;;;;5017265;28;20037;-70
2022/10/24 11:24:00;;;;;;;23.88;4.25;;;;;;;;;;5016052;28;20036;-70
2022/10/24 11:26:28;;;;;;;28.83;4.65;;;;;;;;;;5014090;28;20040;-70
2022/10/24 11:29:00;;;;;;;19.05;3.95;;;;;;;;;;5016547;28;20051;-69
2022/10/24 11:31:27;;;;;;;28.92;4.45;;;;;;;;;;5015036;28;20036;-70
2022/10/24 11:33:53;;;;;;;28.48;4.30;;;;;;;;;;5016347;28;20037;-70
2022/10/24 11:36:22;;;;;;;40.58;6.70;;;;;;;;;;5012321;28;20330;-72
2022/10/24 11:39:10;;;;;;;42.28;5.75;;;;;;;;;;5018744;28;20128;-69
2022/10/24 11:41:49;;;;;;;35.53;5.57;;;;;;;;;;5004723;28;20040;-71
2022/10/24 11:44:37;;;;;;;30.77;4.63;;;;;;;;;;5015962;28;20115;-69
2022/10/24 11:47:29;;;;;;;26.77;4.50;;;;;;;;;;5011214;28;20033;-70
2022/10/24 11:49:59;;;;;;;34.63;5.07;;;;;;;;;;5020964;28;20148;-70
2022/10/24 11:52:27;;;;;;;39.15;5.35;;;;;;;;;;5021052;28;20036;-70
2022/10/24 11:55:00;;;;;;;44.00;5.60;;;;;;;;;;5021531;28;21242;-71
2022/10/24 11:57:27;;;;;;;36.40;5.65;;;;;;;;;;5020776;28;20032;-71
2022/10/24 11:59:53;;;;;;;37.33;5.28;;;;;;;;;;5014132;28;20554;-70
2022/10/24 12:02:28;;;;;;;34.00;5.68;;;;;;;;;;5015991;28;20029;-71
2022/10/24 12:05:12;;;;;;;24.92;4.65;;;;;;;;;;5019898;28;20043;-71
2022/10/24 12:07:38;;;;;;;19.08;3.28;;;;;;;;;;5020519;28;20024;-70
2022/10/24 12:10:21;;;;;;;29.88;4.30;;;;;;;;;;5019834;28;20031;-71
2022/10/24 12:13:02;;;;;;;20.17;3.15;;;;;;;;;;5019757;28;20127;-70
2022/10/24 12:15:37;;;;;;;26.70;4.22;;;;;;;;;;5020996;28;20063;-72
2022/10/24 12:18:10;;;;;;;24.08;4.05;;;;;;;;;;5035564;28;20029;-69
2022/10/24 12:20:37;;;;;;;23.42;4.15;;;;;;;;;;5021222;28;20037;-69
2022/10/24 12:23:05;;;;;;;28.20;4.97;;;;;;;;;;5022233;28;20355;-69
2022/10/24 12:25:34;;;;;;;25.45;4.28;;;;;;;;;;5021372;28;20856;-68
2022/10/24 12:28:19;;;;;;;31.17;5.20;;;;;;;;;;5021651;28;20880;-68
2022/10/24 12:31:04;;;;;;;34.80;4.95;;;;;;;;;;5021220;28;20064;-70
2022/10/24 12:33:30;;;;;;;23.25;3.97;;;;;;;;;;5021446;28;20033;-70
2022/10/24 12:35:57;;;;;;;28.45;4.50;;;;;;;;;;5035343;28;20058;-69
2022/10/24 12:38:28;;;;;;;38.25;5.47;;;;;;;;;;5020942;28;20899;-71
2022/10/24 12:40:57;;;;;;;41.65;5.88;;;;;;;;;;5019086;28;20867;-70
2022/10/24 12:43:29;;;;;;;39.45;5.55;;;;;;;;;;5021682;28;20033;-69
2022/10/24 12:45:59;;;;;;;30.73;5.05;;;;;;;;;;5020148;28;20044;-70
2022/10/24 12:48:31;;;;;;;31.38;5.30;;;;;;;;;;5018062;28;20036;-71
2022/10/24 12:51:16;;;;;;;29.85;5.00;;;;;;;;;;5019750;28;21086;-69
2022/10/24 12:54:01;;;;;;;31.42;5.05;;;;;;;;;;5020281;28;20033;-70
2022/10/24 12:56:26;;;;;;;32.88;4.50;;;;;;;;;;5017575;28;20834;-68
2022/10/24 12:58:56;;;;;;;35.95;6.03;;;;;;;;;;5021309;28;20804;-68
2022/10/24 13:01:32;;;;;;;32.40;4.75;;;;;;;;;;5020686;28;20044;-69
2022/10/24 13:04:00;;;;;;;25.80;3.95;;;;;;;;;;5020078;28;20029;-70
2022/10/24 13:06:25;;;;;;;32.85;4.70;;;;;;;;;;5017783;28;20041;-71
2022/10/24 13:09:04;;;;;;;24.25;4.22;;;;;;;;;;5016391;28;20683;-70
2022/10/24 13:11:53;;;;;;;27.40;4.03;;;;;;;;;;5019844;28;20873;-71
2022/10/24 13:14:18;;;;;;;21.88;4.05;;;;;;;;;;5019870;28;20032;-69
2022/10/24 13:16:53;;;;;;;18.67;3.70;;;;;;;;;;5019948;28;20036;-69
2022/10/24 13:19:23;;;;;;;24.95;4.40;;;;;;;;;;5020494;28;20029;-68
2022/10/24 13:21:50;;;;;;;28.50;3.90;;;;;;;;;;5019767;28;20103;-72
2022/10/24 13:24:15;;;;;;;25.42;4.15;;;;;;;;;;5019964;28;20048;-69
2022/10/24 13:26:42;;;;;;;29.67;4.40;;;;;;;;;;5017562;28;22364;-69
2022/10/24 13:29:15;;;;;;;34.13;4.57;;;;;;;;;;5010610;28;20809;-69
2022/10/24 13:31:40;;;;;;;31.88;4.50;;;;;;;;;;5018647;28;20033;-66
2022/10/24 13:34:18;;;;;;;24.15;3.60;;;;;;;;;;5018856;28;20129;-67
2022/10/24 13:36:44;;;;;;;23.73;3.60;;;;;;;;;;5019932;28;20037;-68
2022/10/24 13:39:14;;;;;;;28.67;4.35;;;;;;;;;;5034746;28;20049;-67
2022/10/24 13:41:44;;;;;;;36.90;5.45;;;;;;;;;;5018029;28;20058;-69
2022/10/24 13:44:10;;;;;;;28.63;4.60;;;;;;;;;;5017865;28;20795;-68
2022/10/24 13:46:35;;;;;;;30.40;4.63;;;;;;;;;;5017019;28;20057;-67
2022/10/24 13:49:05;;;;;;;27.05;4.38;;;;;;;;;;5019001;28;20047;-67
2022/10/24 13:51:33;;;;;;;24.40;3.92;;;;;;;;;;5017445;28;20098;-68
2022/10/24 13:54:01;;;;;;;27.88;3.80;;;;;;;;;;5019961;28;20159;-69
2022/10/24 13:56:27;;;;;;;24.05;3.78;;;;;;;;;;5014027;28;20247;-67
2022/10/24 13:58:53;;;;;;;36.50;5.00;;;;;;;;;;5018174;28;20048;-68
2022/10/24 14:01:18;;;;;;;28.30;4.57;;;;;;;;;;5032416;28;20504;-71
2022/10/24 14:03:47;;;;;;;26.17;4.28;;;;;;;;;;5018163;28;21815;-68
2022/10/24 14:06:12;;;;;;;22.48;3.15;;;;;;;;;;5013456;28;20040;-68
2022/10/24 14:08:42;;;;;;;18.08;3.33;;;;;;;;;;5016500;28;22435;-68
2022/10/24 14:11:14;;;;;;;34.92;4.63;;;;;;;;;;5018534;28;20047;-67
2022/10/24 14:13:46;;;;;;;31.33;4.53;;;;;;;;;;5019360;28;20222;-66
2022/10/24 14:16:12;;;;;;;30.00;4.60;;;;;;;;;;5032865;28;20037;-66
2022/10/24 14:18:40;;;;;;;25.02;3.75;;;;;;;;;;5020262;28;20033;-67
2022/10/24 14:21:18;;;;;;;18.83;3.13;;;;;;;;;;5020065;28;20894;-69
2022/10/24 14:23:52;;;;;;;31.80;4.43;;;;;;;;;;5016256;28;20066;-70
2022/10/24 14:26:18;;;;;;;25.17;4.20;;;;;;;;;;5017765;28;20761;-68
2022/10/24 14:28:48;;;;;;;27.15;3.85;;;;;;;;;;5016844;28;20597;-68
2022/10/24 14:31:19;;;;;;;30.00;4.78;;;;;;;;;;5019035;28;20126;-70
2022/10/24 14:33:49;;;;;;;33.25;5.10;;;;;;;;;;5020065;28;20097;-67
2022/10/24 14:36:15;;;;;;;38.67;5.28;;;;;;;;;;5016918;28;20534;-67
2022/10/24 14:38:40;;;;;;;24.83;3.63;;;;;;;;;;5020367;28;20028;-69
2022/10/24 14:41:09;;;;;;;31.23;4.70;;;;;;;;;;5019214;28;20044;-68